Time;durP1;ratioP1;P1;durP2;ratioP2;P2;SDS_P1;SDS_P2;PMS_P1;PMS_P2;Temp;Humidity;BMP_temperature;BMP_pressure;BME280_temperature;BME280_humidity;BME280_pressure;Samples;Min_cycle;Max_cycle;Signal;HPM_P1;HPM_P2
2023/04/11 00:00:10;;;;;;;3.72;3.42;;;;;;;;;;5035242;28;20048;-87
2023/04/11 00:02:38;;;;;;;3.80;3.50;;;;;;;;;;5037570;28;20080;-86
2023/04/11 00:05:06;;;;;;;3.80;3.50;;;;;;;;;;5035095;28;20075;-87
2023/04/11 00:07:33;;;;;;;4.15;3.85;;;;;;;;;;5035555;28;20041;-86
2023/04/11 00:10:01;;;;;;;4.05;3.65;;;;;;;;;;5035137;28;20411;-88
2023/04/11 00:12:28;;;;;;;3.55;3.25;;;;;;;;;;5035683;28;20095;-87
2023/04/11 00:14:55;;;;;;;4.93;3.60;;;;;;;;;;5035498;28;20494;-86
2023/04/11 00:17:23;;;;;;;3.63;3.33;;;;;;;;;;5035368;28;20139;-86
2023/04/11 00:19:52;;;;;;;4.05;3.60;;;;;;;;;;5035297;28;20049;-86
2023/04/11 00:22:19;;;;;;;3.67;3.38;;;;;;;;;;5035402;28;20458;-87
2023/04/11 00:24:46;;;;;;;3.90;3.60;;;;;;;;;;5038929;28;20457;-87
2023/04/11 00:27:14;;;;;;;4.15;3.75;;;;;;;;;;5053646;28;20119;-87
2023/04/11 00:29:41;;;;;;;4.47;3.92;;;;;;;;;;5053048;28;20087;-87
2023/04/11 00:32:08;;;;;;;4.07;3.78;;;;;;;;;;5036520;28;20048;-86
2023/04/11 00:34:36;;;;;;;3.88;3.47;;;;;;;;;;5037422;28;20055;-87
2023/04/11 00:37:03;;;;;;;3.92;3.63;;;;;;;;;;5036676;28;20456;-86
2023/04/11 00:39:33;;;;;;;4.20;3.80;;;;;;;;;;5035910;28;20052;-87
2023/04/11 00:42:04;;;;;;;4.53;4.03;;;;;;;;;;5035201;28;20049;-87
2023/04/11 00:44:32;;;;;;;4.70;4.30;;;;;;;;;;5055709;28;20029;-87
2023/04/11 00:46:59;;;;;;;5.20;4.70;;;;;;;;;;5047917;28;20080;-88
2023/04/11 00:49:27;;;;;;;5.20;4.63;;;;;;;;;;5035147;28;20132;-87
2023/04/11 00:51:55;;;;;;;5.20;4.53;;;;;;;;;;5035041;28;20053;-87
2023/04/11 00:54:27;;;;;;;4.97;4.47;;;;;;;;;;5036223;28;20145;-87
2023/04/11 00:56:57;;;;;;;6.13;5.30;;;;;;;;;;5038470;28;20084;-87
2023/04/11 00:59:26;;;;;;;5.35;4.85;;;;;;;;;;5038972;28;20123;-85
2023/04/11 01:01:53;;;;;;;5.65;4.75;;;;;;;;;;5038918;28;20087;-87
2023/04/11 01:04:21;;;;;;;5.60;5.00;;;;;;;;;;5038801;28;20048;-86
2023/04/11 01:06:51;;;;;;;5.53;4.82;;;;;;;;;;5038843;28;20137;-86
2023/04/11 01:09:20;;;;;;;5.60;5.10;;;;;;;;;;5038507;28;20136;-86
2023/04/11 01:11:50;;;;;;;5.22;4.75;;;;;;;;;;5038607;28;20084;-87
2023/04/11 01:14:18;;;;;;;5.78;5.18;;;;;;;;;;5038219;28;20053;-87
2023/04/11 01:16:47;;;;;;;12.00;5.53;;;;;;;;;;5038306;28;20405;-86
2023/04/11 01:19:21;;;;;;;6.07;5.47;;;;;;;;;;5038161;28;20135;-88
2023/04/11 01:21:49;;;;;;;6.85;5.78;;;;;;;;;;5038109;28;20045;-86
2023/04/11 01:24:17;;;;;;;8.50;6.30;;;;;;;;;;5037711;28;20063;-87
2023/04/11 01:26:44;;;;;;;6.78;6.18;;;;;;;;;;5038275;28;20136;-86
2023/04/11 01:29:12;;;;;;;8.63;6.43;;;;;;;;;;5037943;28;20063;-86
2023/04/11 01:31:39;;;;;;;7.05;6.35;;;;;;;;;;5037892;28;20095;-86
2023/04/11 01:34:07;;;;;;;8.43;7.03;;;;;;;;;;5037634;28;20506;-86
2023/04/11 01:36:35;;;;;;;9.25;6.80;;;;;;;;;;5037730;28;20084;-85
2023/04/11 01:39:03;;;;;;;10.65;7.75;;;;;;;;;;5037993;28;20125;-85
2023/04/11 01:41:31;;;;;;;10.52;7.68;;;;;;;;;;5043016;28;20052;-86
2023/04/11 01:43:58;;;;;;;8.07;7.28;;;;;;;;;;5057868;28;20131;-85
2023/04/11 01:46:25;;;;;;;10.50;7.63;;;;;;;;;;5039959;28;20144;-86
2023/04/11 01:48:55;;;;;;;7.88;7.15;;;;;;;;;;5057344;28;20076;-84
2023/04/11 01:51:23;;;;;;;9.13;7.18;;;;;;;;;;5039396;28;20461;-85
2023/04/11 01:53:50;;;;;;;8.25;7.43;;;;;;;;;;5039346;28;20128;-86
2023/04/11 01:56:17;;;;;;;9.70;7.90;;;;;;;;;;5039541;28;20456;-85
2023/04/11 01:58:44;;;;;;;9.23;7.13;;;;;;;;;;5039205;28;20049;-86
2023/04/11 02:01:13;;;;;;;8.10;6.88;;;;;;;;;;5057244;28;20183;-84
2023/04/11 02:03:40;;;;;;;8.30;6.95;;;;;;;;;;5039583;28;20045;-86
2023/04/11 02:06:08;;;;;;;7.57;6.82;;;;;;;;;;5039162;28;20049;-85
2023/04/11 02:08:35;;;;;;;8.57;7.63;;;;;;;;;;5039662;28;20490;-85
2023/04/11 02:11:02;;;;;;;8.43;6.95;;;;;;;;;;5039766;28;20465;-85
2023/04/11 02:13:30;;;;;;;7.50;6.70;;;;;;;;;;5040202;28;20091;-85
2023/04/11 02:15:57;;;;;;;8.38;7.13;;;;;;;;;;5039932;28;20113;-84
2023/04/11 02:18:24;;;;;;;9.15;7.72;;;;;;;;;;5040706;28;20057;-85
2023/04/11 02:20:52;;;;;;;7.05;6.32;;;;;;;;;;5040223;28;20125;-83
2023/04/11 02:23:19;;;;;;;8.35;6.95;;;;;;;;;;5039648;28;20120;-84
2023/04/11 02:25:46;;;;;;;9.48;7.25;;;;;;;;;;5040632;28;20045;-85
2023/04/11 02:28:14;;;;;;;8.70;7.22;;;;;;;;;;5040767;28;20053;-85
2023/04/11 02:30:41;;;;;;;8.93;6.88;;;;;;;;;;5041106;28;20135;-85
2023/04/11 02:33:08;;;;;;;8.73;7.55;;;;;;;;;;5059209;28;20048;-84
2023/04/11 02:35:36;;;;;;;10.93;7.50;;;;;;;;;;5042745;28;20131;-84
2023/04/11 02:38:03;;;;;;;7.80;7.00;;;;;;;;;;5042541;28;20498;-85
2023/04/11 02:40:30;;;;;;;9.18;7.50;;;;;;;;;;5042921;28;20049;-85
2023/04/11 02:42:57;;;;;;;8.82;7.93;;;;;;;;;;5042142;28;20104;-85
2023/04/11 02:45:25;;;;;;;8.27;7.40;;;;;;;;;;5043008;28;20098;-86
2023/04/11 02:47:52;;;;;;;8.63;7.72;;;;;;;;;;5041261;28;20490;-85
2023/04/11 02:50:19;;;;;;;9.30;7.50;;;;;;;;;;5057587;28;20060;-84
2023/04/11 02:52:48;;;;;;;8.23;7.43;;;;;;;;;;5038543;28;20087;-85
2023/04/11 02:55:15;;;;;;;8.68;7.47;;;;;;;;;;5037632;28;20049;-85
2023/04/11 02:57:42;;;;;;;8.23;7.00;;;;;;;;;;5043346;28;20485;-85
2023/04/11 03:00:10;;;;;;;8.50;7.60;;;;;;;;;;5063337;28;20139;-85
2023/04/11 03:02:37;;;;;;;8.45;7.40;;;;;;;;;;5045488;28;20049;-86
2023/04/11 03:05:05;;;;;;;7.93;7.07;;;;;;;;;;5048417;28;20048;-84
2023/04/11 03:07:33;;;;;;;8.68;7.32;;;;;;;;;;5061052;28;20047;-84
2023/04/11 03:10:00;;;;;;;10.60;7.78;;;;;;;;;;5040761;28;20052;-84
2023/04/11 03:12:27;;;;;;;9.75;7.35;;;;;;;;;;5036358;28;20129;-85
2023/04/11 03:14:55;;;;;;;8.43;7.50;;;;;;;;;;5054657;28;20055;-86
2023/04/11 03:17:22;;;;;;;11.02;7.40;;;;;;;;;;5039743;28;20111;-85
2023/04/11 03:19:52;;;;;;;11.30;8.20;;;;;;;;;;5055689;28;20049;-86
2023/04/11 03:22:19;;;;;;;11.52;8.10;;;;;;;;;;5038279;28;20125;-85
2023/04/11 03:24:48;;;;;;;10.00;8.20;;;;;;;;;;5037837;28;20091;-86
2023/04/11 03:27:15;;;;;;;13.05;8.52;;;;;;;;;;5037245;28;20055;-85
2023/04/11 03:29:43;;;;;;;11.70;8.68;;;;;;;;;;5033288;23;20144;-81
2023/04/11 03:32:10;;;;;;;11.02;8.93;;;;;;;;;;5033392;28;20045;-81
2023/04/11 03:34:37;;;;;;;12.05;9.18;;;;;;;;;;5032964;28;20503;-80
2023/04/11 03:37:04;;;;;;;11.75;9.70;;;;;;;;;;5036567;28;20049;-81
2023/04/11 03:39:31;;;;;;;12.65;9.32;;;;;;;;;;5036292;28;20509;-81
2023/04/11 03:42:00;;;;;;;14.07;9.93;;;;;;;;;;5017482;28;20056;-80
2023/04/11 03:44:27;;;;;;;12.50;9.60;;;;;;;;;;5015567;28;20511;-82
2023/04/11 03:46:54;;;;;;;13.18;9.80;;;;;;;;;;5016018;28;20108;-81
2023/04/11 03:49:22;;;;;;;12.75;10.05;;;;;;;;;;5015782;28;20053;-82
2023/04/11 03:51:49;;;;;;;20.60;16.45;;;;;;;;;;5032689;28;20075;-81
2023/04/11 03:54:16;;;;;;;14.93;10.55;;;;;;;;;;5033171;28;20054;-82
2023/04/11 03:56:44;;;;;;;17.33;11.27;;;;;;;;;;5017620;28;20059;-82
2023/04/11 03:59:11;;;;;;;15.43;12.50;;;;;;;;;;5016634;28;20057;-81
2023/04/11 04:01:38;;;;;;;15.65;12.65;;;;;;;;;;5016221;28;20563;-81
2023/04/11 04:04:06;;;;;;;18.88;13.10;;;;;;;;;;5033834;28;20137;-82
2023/04/11 04:06:34;;;;;;;15.32;10.90;;;;;;;;;;5033800;28;20041;-82
2023/04/11 04:09:03;;;;;;;18.17;13.68;;;;;;;;;;5034663;28;20069;-82
2023/04/11 04:11:30;;;;;;;25.48;15.85;;;;;;;;;;5034988;28;20087;-82
2023/04/11 04:13:57;;;;;;;19.33;13.55;;;;;;;;;;5034398;28;20145;-81
2023/04/11 04:16:24;;;;;;;18.33;11.88;;;;;;;;;;5034877;28;20045;-81
2023/04/11 04:18:51;;;;;;;15.77;11.63;;;;;;;;;;5016558;28;20053;-81
2023/04/11 04:21:19;;;;;;;14.20;10.90;;;;;;;;;;5016713;28;20439;-81
2023/04/11 04:23:46;;;;;;;16.58;12.40;;;;;;;;;;5034610;28;20049;-82
2023/04/11 04:26:23;;;;;;;13.68;10.93;;;;;;;;;;5016009;28;20443;-81
2023/04/11 04:28:52;;;;;;;13.20;10.77;;;;;;;;;;5016734;28;20427;-81
2023/04/11 04:31:24;;;;;;;18.05;12.43;;;;;;;;;;5038051;28;20057;-81
2023/04/11 04:33:51;;;;;;;12.95;11.40;;;;;;;;;;5020048;28;20052;-80
2023/04/11 04:36:19;;;;;;;16.75;12.52;;;;;;;;;;5021612;28;20422;-81
2023/04/11 04:38:47;;;;;;;16.05;11.73;;;;;;;;;;5020830;28;20046;-80
2023/04/11 04:41:14;;;;;;;15.85;11.57;;;;;;;;;;5020751;28;20056;-80
2023/04/11 04:43:41;;;;;;;14.18;11.25;;;;;;;;;;5021172;28;20103;-81
2023/04/11 04:46:09;;;;;;;16.95;11.88;;;;;;;;;;5020556;28;20057;-80
2023/04/11 04:48:37;;;;;;;18.55;12.60;;;;;;;;;;5037871;28;20103;-80
2023/04/11 04:51:04;;;;;;;17.20;11.50;;;;;;;;;;5020003;28;20137;-80
2023/04/11 04:53:33;;;;;;;16.92;12.23;;;;;;;;;;5037225;28;20523;-79
2023/04/11 04:56:01;;;;;;;19.38;12.32;;;;;;;;;;5019491;28;20053;-79
2023/04/11 04:58:28;;;;;;;17.90;12.20;;;;;;;;;;5020755;28;20056;-80
2023/04/11 05:00:56;;;;;;;16.52;12.13;;;;;;;;;;5037175;28;20496;-80
2023/04/11 05:03:23;;;;;;;27.48;13.80;;;;;;;;;;5020087;28;20111;-80
2023/04/11 05:05:50;;;;;;;23.45;13.60;;;;;;;;;;5019267;28;20045;-80
2023/04/11 05:08:21;;;;;;;17.77;12.90;;;;;;;;;;5019657;28;20148;-79
2023/04/11 05:10:48;;;;;;;21.80;15.02;;;;;;;;;;5037641;28;20069;-80
2023/04/11 05:13:15;;;;;;;28.30;16.60;;;;;;;;;;5038082;28;20056;-80
2023/04/11 05:15:50;;;;;;;25.08;16.08;;;;;;;;;;5037828;28;20056;-80
2023/04/11 05:18:17;;;;;;;23.73;15.18;;;;;;;;;;5037422;28;20081;-80
2023/04/11 05:20:44;;;;;;;23.50;15.32;;;;;;;;;;5020214;28;20045;-79
2023/04/11 05:23:11;;;;;;;21.42;14.70;;;;;;;;;;5036522;28;20060;-80
2023/04/11 05:25:38;;;;;;;21.55;13.50;;;;;;;;;;5036708;28;20140;-80
2023/04/11 05:28:05;;;;;;;17.67;11.68;;;;;;;;;;5018785;28;20132;-80
2023/04/11 05:30:33;;;;;;;7.45;5.28;;;;;;;;;;5019158;28;20495;-81
2023/04/11 05:33:00;;;;;;;22.00;13.80;;;;;;;;;;5036160;28;20119;-80
2023/04/11 05:35:27;;;;;;;19.08;12.52;;;;;;;;;;5036267;28;20587;-80
2023/04/11 05:37:54;;;;;;;17.77;12.85;;;;;;;;;;5035984;28;20140;-81
2023/04/11 05:40:21;;;;;;;16.95;11.38;;;;;;;;;;5035099;28;20511;-81
2023/04/11 05:42:49;;;;;;;12.82;6.97;;;;;;;;;;5018138;28;20117;-81
2023/04/11 05:45:16;;;;;;;13.40;6.75;;;;;;;;;;5017984;28;20056;-80
2023/04/11 05:47:43;;;;;;;7.47;3.45;;;;;;;;;;5035397;28;20137;-80
2023/04/11 05:50:10;;;;;;;8.93;5.85;;;;;;;;;;5035610;28;20496;-80
2023/04/11 05:52:37;;;;;;;7.22;5.60;;;;;;;;;;5035413;28;20451;-80
2023/04/11 05:55:05;;;;;;;10.60;6.88;;;;;;;;;;5035320;28;20052;-80
2023/04/11 05:57:32;;;;;;;12.77;9.30;;;;;;;;;;5017180;28;20045;-80
2023/04/11 06:00:00;;;;;;;13.15;9.05;;;;;;;;;;5016938;28;20124;-80
2023/04/11 06:02:28;;;;;;;10.02;7.38;;;;;;;;;;5017088;28;20566;-80
2023/04/11 06:04:55;;;;;;;13.35;8.32;;;;;;;;;;5016648;28;20057;-80
2023/04/11 06:07:22;;;;;;;10.77;6.78;;;;;;;;;;5034754;28;20075;-81
2023/04/11 06:09:50;;;;;;;8.57;5.18;;;;;;;;;;5034572;28;20567;-80
2023/04/11 06:12:17;;;;;;;7.22;4.93;;;;;;;;;;5034346;28;20045;-80
2023/04/11 06:14:44;;;;;;;5.22;4.15;;;;;;;;;;5034302;28;20497;-80
2023/04/11 06:17:11;;;;;;;6.18;4.35;;;;;;;;;;5034070;28;20045;-80
2023/04/11 06:19:39;;;;;;;6.72;2.88;;;;;;;;;;5016891;28;20045;-80
2023/04/11 06:22:06;;;;;;;5.07;2.45;;;;;;;;;;5016610;28;20057;-80
2023/04/11 06:24:37;;;;;;;4.88;2.05;;;;;;;;;;5034313;28;20049;-80
2023/04/11 06:27:04;;;;;;;4.38;1.58;;;;;;;;;;5033907;28;20049;-80
2023/04/11 06:29:32;;;;;;;4.05;1.38;;;;;;;;;;5020149;28;20111;-80
2023/04/11 06:31:59;;;;;;;8.40;3.05;;;;;;;;;;5019867;28;20045;-81
2023/04/11 06:34:26;;;;;;;17.67;5.25;;;;;;;;;;5019375;28;20136;-80
2023/04/11 06:36:53;;;;;;;4.25;1.75;;;;;;;;;;5019566;28;20050;-80
2023/04/11 06:39:21;;;;;;;3.72;1.92;;;;;;;;;;5036822;28;20045;-80
2023/04/11 06:41:48;;;;;;;3.75;1.20;;;;;;;;;;5036547;28;20456;-80
2023/04/11 06:44:16;;;;;;;2.08;1.35;;;;;;;;;;5018827;28;20075;-81
2023/04/11 06:46:43;;;;;;;3.22;2.30;;;;;;;;;;5018360;28;20061;-81
2023/04/11 06:49:10;;;;;;;4.28;3.20;;;;;;;;;;5018258;28;20451;-81
2023/04/11 06:51:38;;;;;;;3.78;1.63;;;;;;;;;;5035463;28;20504;-81
2023/04/11 06:54:05;;;;;;;5.03;1.35;;;;;;;;;;5018048;28;20048;-81
2023/04/11 06:56:32;;;;;;;2.90;1.25;;;;;;;;;;5018489;28;20041;-81
2023/04/11 06:59:00;;;;;;;3.15;0.80;;;;;;;;;;5035851;28;20073;-81
2023/04/11 07:01:34;;;;;;;2.92;0.90;;;;;;;;;;5017939;28;20053;-81
2023/04/11 07:04:01;;;;;;;6.72;1.10;;;;;;;;;;5018017;28;20055;-81
2023/04/11 07:06:30;;;;;;;2.25;0.90;;;;;;;;;;5035611;28;20084;-81
2023/04/11 07:08:59;;;;;;;1.05;0.60;;;;;;;;;;5017256;28;20108;-81
2023/04/11 07:11:27;;;;;;;1.95;0.63;;;;;;;;;;5018560;28;20108;-82
2023/04/11 07:13:54;;;;;;;1.10;0.73;;;;;;;;;;5036806;28;20081;-82
2023/04/11 07:16:22;;;;;;;1.17;0.63;;;;;;;;;;5019546;28;20049;-82
2023/04/11 07:18:49;;;;;;;1.15;0.80;;;;;;;;;;5036481;28;20045;-82
2023/04/11 07:21:17;;;;;;;3.40;0.85;;;;;;;;;;5018665;28;20072;-81
2023/04/11 07:23:44;;;;;;;2.80;0.75;;;;;;;;;;5018926;28;20045;-82
2023/04/11 07:26:12;;;;;;;0.73;0.70;;;;;;;;;;5018667;28;20055;-83
2023/04/11 07:28:39;;;;;;;1.88;0.73;;;;;;;;;;5017959;28;20108;-83
2023/04/11 07:31:08;;;;;;;2.35;0.80;;;;;;;;;;5018262;28;20140;-83
2023/04/11 07:33:36;;;;;;;6.80;3.53;;;;;;;;;;5035468;28;20057;-83
2023/04/11 07:36:04;;;;;;;2.40;2.13;;;;;;;;;;5018414;28;20046;-83
2023/04/11 07:38:33;;;;;;;5.70;2.80;;;;;;;;;;5035608;28;20111;-83
2023/04/11 07:41:00;;;;;;;3.53;1.85;;;;;;;;;;5035521;28;20153;-84
2023/04/11 07:43:28;;;;;;;2.78;0.57;;;;;;;;;;5035840;28;20132;-83
2023/04/11 07:45:56;;;;;;;1.27;0.60;;;;;;;;;;5017917;28;20060;-83
2023/04/11 07:48:24;;;;;;;2.67;0.60;;;;;;;;;;5017670;28;20500;-83
2023/04/11 07:50:51;;;;;;;1.70;0.50;;;;;;;;;;5017936;28;20080;-83
2023/04/11 07:53:19;;;;;;;1.05;0.57;;;;;;;;;;5017297;28;20049;-84
2023/04/11 07:55:46;;;;;;;2.15;0.50;;;;;;;;;;5017180;28;20045;-83
2023/04/11 07:58:13;;;;;;;1.65;0.70;;;;;;;;;;5018028;28;20076;-84
2023/04/11 08:00:40;;;;;;;2.50;0.75;;;;;;;;;;5018889;28;20049;-83
2023/04/11 08:03:08;;;;;;;1.30;0.60;;;;;;;;;;5018298;28;20141;-84
2023/04/11 08:05:36;;;;;;;3.50;0.80;;;;;;;;;;5023015;28;20053;-85
2023/04/11 08:08:04;;;;;;;5.28;0.82;;;;;;;;;;5022404;28;20132;-84
2023/04/11 08:10:31;;;;;;;2.33;0.85;;;;;;;;;;5023142;28;20141;-84
2023/04/11 08:12:58;;;;;;;1.58;0.70;;;;;;;;;;5039815;28;20108;-83
2023/04/11 08:15:26;;;;;;;4.97;0.90;;;;;;;;;;5040805;28;20088;-81
2023/04/11 08:17:55;;;;;;;5.00;0.75;;;;;;;;;;5024001;28;20041;-84
2023/04/11 08:20:23;;;;;;;2.70;0.60;;;;;;;;;;5026088;28;20046;-82
2023/04/11 08:22:50;;;;;;;3.00;0.70;;;;;;;;;;5025993;28;20049;-84
2023/04/11 08:25:24;;;;;;;1.67;0.55;;;;;;;;;;5042562;28;20049;-84
2023/04/11 08:27:51;;;;;;;;;;;;;;;;;;5025770;28;20056;-84
2023/04/11 08:30:19;;;;;;;2.60;0.60;;;;;;;;;;5044247;28;19921;-85
2023/04/11 08:32:47;;;;;;;1.40;0.50;;;;;;;;;;5043527;28;20140;-85
2023/04/11 08:35:14;;;;;;;2.25;0.50;;;;;;;;;;5023735;28;20053;-84
2023/04/11 08:37:43;;;;;;;2.55;0.68;;;;;;;;;;5024424;28;20488;-84
2023/04/11 08:40:10;;;;;;;4.18;1.00;;;;;;;;;;5024543;28;20124;-85
2023/04/11 08:42:37;;;;;;;2.80;0.80;;;;;;;;;;5025047;28;20049;-84
2023/04/11 08:45:08;;;;;;;2.22;0.70;;;;;;;;;;5042289;28;20045;-82
2023/04/11 08:47:36;;;;;;;3.67;0.73;;;;;;;;;;5022067;28;20144;-83
2023/04/11 08:50:04;;;;;;;2.67;0.80;;;;;;;;;;5021913;28;20092;-83
2023/04/11 08:52:32;;;;;;;1.23;0.50;;;;;;;;;;5021735;28;20046;-84
2023/04/11 08:55:00;;;;;;;2.78;1.10;;;;;;;;;;5021060;28;20050;-84
2023/04/11 08:57:30;;;;;;;1.25;0.50;;;;;;;;;;5021006;28;20056;-84
2023/04/11 09:00:13;;;;;;;6.93;0.50;;;;;;;;;;5021079;28;20088;-82
2023/04/11 09:03:00;;;;;;;2.47;0.77;;;;;;;;;;5021927;28;20060;-84
2023/04/11 09:05:28;;;;;;;0.75;0.35;;;;;;;;;;5021461;28;20046;-83
2023/04/11 09:07:56;;;;;;;1.33;0.40;;;;;;;;;;5038402;28;21389;-84
2023/04/11 09:10:23;;;;;;;2.08;0.60;;;;;;;;;;5020418;28;20492;-84
2023/04/11 09:12:51;;;;;;;1.90;0.68;;;;;;;;;;5022243;28;20046;-84
2023/04/11 09:15:19;;;;;;;2.65;0.75;;;;;;;;;;5026028;28;20579;-85
2023/04/11 09:17:46;;;;;;;1.75;0.40;;;;;;;;;;5042787;28;20095;-85
2023/04/11 09:20:17;;;;;;;1.80;0.40;;;;;;;;;;5024866;28;20054;-84
2023/04/11 09:22:45;;;;;;;2.47;0.50;;;;;;;;;;5024186;28;20055;-85
2023/04/11 09:25:12;;;;;;;1.20;0.60;;;;;;;;;;5042757;28;20056;-86
2023/04/11 09:27:39;;;;;;;1.17;0.32;;;;;;;;;;5042668;28;20427;-85
2023/04/11 09:30:18;;;;;;;2.03;0.60;;;;;;;;;;5044112;23;20049;-91
2023/04/11 09:32:47;;;;;;;4.47;1.02;;;;;;;;;;5019442;28;20446;-91
2023/04/11 09:35:14;;;;;;;4.55;0.85;;;;;;;;;;5019388;28;20463;-89
2023/04/11 09:37:45;;;;;;;1.55;0.75;;;;;;;;;;5019505;28;20136;-91
2023/04/11 09:40:15;;;;;;;1.35;0.50;;;;;;;;;;5036487;28;20053;-93
2023/04/11 09:42:42;;;;;;;1.33;0.60;;;;;;;;;;5036309;28;20056;-90
2023/04/11 09:45:17;;;;;;;6.82;0.82;;;;;;;;;;5019260;28;20046;-90
2023/04/11 09:47:45;;;;;;;1.30;0.55;;;;;;;;;;5018947;28;20046;-91
2023/04/11 09:50:13;;;;;;;2.28;0.75;;;;;;;;;;5018488;28;20111;-91
2023/04/11 09:52:41;;;;;;;1.65;0.60;;;;;;;;;;5036028;28;20045;-90
2023/04/11 09:55:11;;;;;;;2.35;0.60;;;;;;;;;;5019070;28;20053;-89
2023/04/11 09:57:46;;;;;;;3.25;0.73;;;;;;;;;;5023539;28;20136;-90
2023/04/11 10:00:23;;;;;;;2.42;0.57;;;;;;;;;;5018381;28;20053;-92
2023/04/11 10:02:52;;;;;;;1.38;0.80;;;;;;;;;;5036010;28;20049;-92
2023/04/11 10:05:24;;;;;;;3.35;0.73;;;;;;;;;;5018719;28;20049;-93
2023/04/11 10:07:55;;;;;;;6.03;1.13;;;;;;;;;;5018323;28;20057;-92
2023/04/11 10:10:25;;;;;;;3.08;1.20;;;;;;;;;;5035421;28;20045;-90
2023/04/11 10:12:52;;;;;;;2.00;0.70;;;;;;;;;;5017839;28;20049;-92
2023/04/11 10:15:20;;;;;;;1.98;0.52;;;;;;;;;;5018676;28;20056;-93
2023/04/11 10:18:10;;;;;;;1.80;0.68;;;;;;;;;;5019579;28;20057;-96
2023/04/11 10:20:45;;;;;;;0.68;0.40;;;;;;;;;;5018830;28;20127;-93
2023/04/11 10:23:13;;;;;;;3.60;0.63;;;;;;;;;;5019469;28;20060;-91
2023/04/11 10:25:48;;;;;;;3.45;0.70;;;;;;;;;;5017677;28;20057;-90
2023/04/11 10:28:34;;;;;;;3.20;0.70;;;;;;;;;;5017624;28;20059;-92
2023/04/11 10:31:16;;;;;;;10.90;1.30;;;;;;;;;;5034777;28;20441;-89
2023/04/11 10:34:02;;;;;;;5.25;0.77;;;;;;;;;;5017206;28;20085;-92
2023/04/11 10:36:49;;;;;;;2.35;0.60;;;;;;;;;;5017726;28;20053;-90
2023/04/11 10:39:16;;;;;;;5.68;0.95;;;;;;;;;;5034760;28;20042;-94
2023/04/11 10:41:44;;;;;;;4.32;0.90;;;;;;;;;;5018251;28;20059;-93
2023/04/11 10:44:16;;;;;;;1.38;0.57;;;;;;;;;;5017736;28;20060;-93
2023/04/11 10:46:45;;;;;;;3.28;0.70;;;;;;;;;;5017454;28;20075;-91
2023/04/11 10:49:30;;;;;;;2.30;0.63;;;;;;;;;;5017253;28;20063;-92
2023/04/11 10:52:15;;;;;;;2.60;0.60;;;;;;;;;;5034661;28;20052;-87
2023/04/11 10:54:44;;;;;;;2.88;0.63;;;;;;;;;;5017173;28;20045;-89
2023/04/11 10:57:12;;;;;;;1.77;0.75;;;;;;;;;;5034216;28;20046;-91
2023/04/11 10:59:39;;;;;;;1.90;0.55;;;;;;;;;;5017021;28;20053;-89
2023/04/11 11:02:06;;;;;;;1.95;0.50;;;;;;;;;;5016858;28;20059;-90
2023/04/11 11:04:35;;;;;;;3.15;0.70;;;;;;;;;;5034117;28;20049;-88
2023/04/11 11:07:03;;;;;;;1.90;0.60;;;;;;;;;;5016886;28;20041;-87
2023/04/11 11:09:31;;;;;;;5.32;0.60;;;;;;;;;;5034537;28;20099;-90
2023/04/11 11:12:05;;;;;;;3.67;1.05;;;;;;;;;;5016766;28;20052;-92
2023/04/11 11:14:32;;;;;;;1.58;0.50;;;;;;;;;;5034343;28;20081;-90
2023/04/11 11:17:00;;;;;;;1.95;0.60;;;;;;;;;;5017096;28;20045;-90
2023/04/11 11:19:27;;;;;;;2.15;0.55;;;;;;;;;;5017215;28;20045;-90
2023/04/11 11:21:54;;;;;;;1.38;0.70;;;;;;;;;;5017470;28;20056;-91
2023/04/11 11:24:25;;;;;;;1.30;0.45;;;;;;;;;;5034560;28;20506;-90
2023/04/11 11:26:53;;;;;;;7.22;0.68;;;;;;;;;;5016832;28;20064;-88
2023/04/11 11:29:33;;;;;;;2.60;0.55;;;;;;;;;;5016513;28;20410;-90
2023/04/11 11:32:03;;;;;;;2.35;0.80;;;;;;;;;;5016703;28;20512;-90
2023/04/11 11:34:32;;;;;;;5.15;0.70;;;;;;;;;;5016784;28;20095;-87
2023/04/11 11:37:00;;;;;;;2.42;0.60;;;;;;;;;;5033831;28;20069;-90
2023/04/11 11:39:29;;;;;;;2.50;0.50;;;;;;;;;;5015891;28;20053;-90
2023/04/11 11:41:56;;;;;;;7.32;1.30;;;;;;;;;;5016819;28;20049;-91
2023/04/11 11:44:25;;;;;;;1.88;0.60;;;;;;;;;;5016466;28;20048;-91
2023/04/11 11:47:04;;;;;;;2.85;0.60;;;;;;;;;;5016606;28;20045;-91
2023/04/11 11:49:53;;;;;;;2.22;0.50;;;;;;;;;;5016577;28;20049;-89
2023/04/11 11:52:38;;;;;;;5.25;0.70;;;;;;;;;;5016703;28;20481;-91
2023/04/11 11:55:29;;;;;;;3.47;0.60;;;;;;;;;;5016349;28;20060;-91
2023/04/11 11:57:58;;;;;;;1.02;0.50;;;;;;;;;;5017188;28;20041;-94
2023/04/11 12:00:26;;;;;;;1.00;0.55;;;;;;;;;;5016562;28;20409;-91
2023/04/11 12:02:54;;;;;;;1.58;0.70;;;;;;;;;;5033947;28;20237;-88
2023/04/11 12:05:23;;;;;;;0.75;0.50;;;;;;;;;;5016430;28;20132;-92
2023/04/11 12:07:54;;;;;;;0.60;0.45;;;;;;;;;;5033534;28;20516;-90
2023/04/11 12:10:21;;;;;;;0.85;0.30;;;;;;;;;;5016661;28;20441;-91
2023/04/11 12:12:49;;;;;;;1.92;0.40;;;;;;;;;;5016073;28;20504;-89
2023/04/11 12:15:21;;;;;;;1.73;0.50;;;;;;;;;;5016424;28;20049;-87
2023/04/11 12:17:50;;;;;;;3.08;0.95;;;;;;;;;;5016750;28;20116;-90
2023/04/11 12:20:22;;;;;;;2.38;0.70;;;;;;;;;;5016460;28;20498;-89
2023/04/11 12:22:50;;;;;;;4.07;0.47;;;;;;;;;;5016582;28;20041;-90
2023/04/11 12:25:20;;;;;;;1.45;0.70;;;;;;;;;;5016497;28;20096;-91
2023/04/11 12:27:47;;;;;;;5.63;0.93;;;;;;;;;;5033841;28;20136;-89
2023/04/11 12:30:15;;;;;;;7.80;1.02;;;;;;;;;;5033417;28;20057;-87
2023/04/11 12:32:43;;;;;;;5.53;0.90;;;;;;;;;;5016244;28;20096;-88
2023/04/11 12:35:11;;;;;;;4.82;0.80;;;;;;;;;;5033564;28;20532;-89
2023/04/11 12:37:39;;;;;;;7.60;1.20;;;;;;;;;;5033254;28;20519;-91
2023/04/11 12:40:09;;;;;;;1.70;0.70;;;;;;;;;;5033198;28;20049;-90
2023/04/11 12:42:40;;;;;;;2.47;0.65;;;;;;;;;;5016047;28;20140;-89
2023/04/11 12:45:22;;;;;;;1.08;0.63;;;;;;;;;;5018099;28;20056;-85
2023/04/11 12:47:49;;;;;;;1.15;0.55;;;;;;;;;;5016019;28;20053;-90
2023/04/11 12:50:16;;;;;;;4.05;0.90;;;;;;;;;;5017353;28;20049;-90
2023/04/11 12:52:44;;;;;;;1.75;0.70;;;;;;;;;;5019399;28;20165;-89
2023/04/11 12:55:12;;;;;;;6.28;0.88;;;;;;;;;;5019406;28;20127;-90
2023/04/11 12:57:41;;;;;;;3.80;0.82;;;;;;;;;;5019781;28;20085;-92
2023/04/11 13:00:12;;;;;;;2.10;0.90;;;;;;;;;;5019608;28;20061;-90
2023/04/11 13:02:39;;;;;;;3.78;0.80;;;;;;;;;;5037559;28;20107;-91
2023/04/11 13:05:12;;;;;;;4.70;0.80;;;;;;;;;;5036626;28;20049;-88
2023/04/11 13:07:40;;;;;;;2.90;0.75;;;;;;;;;;5019800;28;20140;-90
2023/04/11 13:10:07;;;;;;;1.73;0.75;;;;;;;;;;5019317;28;20050;-86
2023/04/11 13:12:39;;;;;;;4.25;0.80;;;;;;;;;;5019553;28;20137;-88
2023/04/11 13:15:10;;;;;;;1.48;0.70;;;;;;;;;;5018999;28;20053;-89
2023/04/11 13:17:37;;;;;;;2.50;1.00;;;;;;;;;;5019078;28;20049;-89
2023/04/11 13:20:11;;;;;;;3.83;0.90;;;;;;;;;;5019425;28;20057;-90
2023/04/11 13:22:42;;;;;;;6.57;1.20;;;;;;;;;;5019245;28;20132;-89
2023/04/11 13:25:11;;;;;;;5.43;0.80;;;;;;;;;;5036480;28;20049;-91
2023/04/11 13:27:38;;;;;;;4.70;1.10;;;;;;;;;;5018880;28;20073;-93
2023/04/11 13:30:06;;;;;;;4.93;0.73;;;;;;;;;;5018623;28;20057;-90
2023/04/11 13:32:34;;;;;;;4.78;0.88;;;;;;;;;;5018651;28;20057;-89
2023/04/11 13:35:02;;;;;;;2.22;1.17;;;;;;;;;;5018086;28;20497;-90
2023/04/11 13:37:29;;;;;;;2.28;0.88;;;;;;;;;;5019286;28;20492;-92
2023/04/11 13:39:57;;;;;;;4.00;1.10;;;;;;;;;;5035712;28;20049;-89
2023/04/11 13:42:24;;;;;;;2.85;0.93;;;;;;;;;;5018681;28;20049;-88
2023/04/11 13:44:52;;;;;;;2.15;1.02;;;;;;;;;;5018343;28;20096;-90
2023/04/11 13:47:19;;;;;;;4.20;0.98;;;;;;;;;;5035791;28;20049;-91
2023/04/11 13:49:46;;;;;;;3.58;1.10;;;;;;;;;;5018289;28;20053;-88
2023/04/11 13:52:13;;;;;;;1.23;0.75;;;;;;;;;;5018485;28;20478;-89
2023/04/11 13:54:41;;;;;;;5.22;1.30;;;;;;;;;;5018521;28;20558;-88
2023/04/11 13:57:08;;;;;;;2.92;1.10;;;;;;;;;;5017947;28;20052;-90
2023/04/11 13:59:35;;;;;;;3.33;1.00;;;;;;;;;;5035558;28;20532;-89
2023/04/11 14:02:03;;;;;;;7.97;1.30;;;;;;;;;;5016931;28;20042;-90
2023/04/11 14:04:30;;;;;;;8.43;1.75;;;;;;;;;;5018141;28;20065;-87
2023/04/11 14:06:57;;;;;;;3.63;1.25;;;;;;;;;;5018219;28;20050;-88
2023/04/11 14:09:25;;;;;;;4.85;1.17;;;;;;;;;;5018322;28;20064;-88
2023/04/11 14:11:52;;;;;;;15.00;1.50;;;;;;;;;;5017867;28;20046;-88
2023/04/11 14:14:19;;;;;;;4.50;0.90;;;;;;;;;;5017574;28;20049;-89
2023/04/11 14:16:47;;;;;;;2.85;0.60;;;;;;;;;;5017697;28;20081;-88
2023/04/11 14:19:15;;;;;;;2.75;0.70;;;;;;;;;;5018107;28;20051;-88
2023/04/11 14:21:42;;;;;;;2.38;0.73;;;;;;;;;;5035480;28;20482;-89
2023/04/11 14:24:09;;;;;;;7.57;1.10;;;;;;;;;;5017781;28;20132;-90
2023/04/11 14:26:36;;;;;;;3.60;0.90;;;;;;;;;;5035203;28;20057;-89
2023/04/11 14:29:04;;;;;;;7.88;1.48;;;;;;;;;;5034923;28;20520;-89
2023/04/11 14:31:31;;;;;;;2.85;0.63;;;;;;;;;;5017363;28;20132;-88
2023/04/11 14:33:58;;;;;;;8.48;1.42;;;;;;;;;;5034845;28;20048;-89
2023/04/11 14:36:26;;;;;;;1.75;0.82;;;;;;;;;;5017426;28;20053;-88
2023/04/11 14:38:53;;;;;;;26.25;1.88;;;;;;;;;;5034511;28;20418;-89
2023/04/11 14:41:21;;;;;;;3.95;0.82;;;;;;;;;;5017408;28;20129;-90
2023/04/11 14:43:48;;;;;;;2.75;0.90;;;;;;;;;;5017466;28;20059;-88
2023/04/11 14:46:15;;;;;;;22.52;2.10;;;;;;;;;;5035027;28;20456;-89